Time;durP1;ratioP1;P1;durP2;ratioP2;P2;SDS_P1;SDS_P2;PMS_P1;PMS_P2;Temp;Humidity;BMP_temperature;BMP_pressure;BME280_temperature;BME280_humidity;BME280_pressure;Samples;Min_cycle;Max_cycle;Signal;HPM_P1;HPM_P2
2022/06/10 00:00:44;;;;;;;6.70;6.10;;;;;;;;;;5092975;28;20197;-84
2022/06/10 00:03:13;;;;;;;10.50;7.03;;;;;;;;;;5092442;28;20232;-84
2022/06/10 00:05:46;;;;;;;9.20;6.60;;;;;;;;;;5092912;28;20201;-84
2022/06/10 00:08:16;;;;;;;8.50;6.80;;;;;;;;;;5092306;28;20186;-83
2022/06/10 00:10:45;;;;;;;6.93;6.33;;;;;;;;;;5092769;28;20200;-84
2022/06/10 00:13:13;;;;;;;7.63;7.00;;;;;;;;;;5092324;28;20232;-84
2022/06/10 00:15:41;;;;;;;7.50;6.90;;;;;;;;;;5092664;28;20201;-84
2022/06/10 00:18:09;;;;;;;6.30;5.70;;;;;;;;;;5092428;28;20782;-83
2022/06/10 00:20:36;;;;;;;8.33;6.17;;;;;;;;;;5092426;28;20197;-84
2022/06/10 00:23:05;;;;;;;6.23;5.77;;;;;;;;;;5092379;28;20207;-84
2022/06/10 00:25:32;;;;;;;6.40;5.90;;;;;;;;;;5092586;28;20287;-84
2022/06/10 00:28:00;;;;;;;7.73;6.93;;;;;;;;;;5092182;28;20230;-84
2022/06/10 00:30:29;;;;;;;10.53;7.53;;;;;;;;;;5092178;28;20201;-84
2022/06/10 00:32:57;;;;;;;14.80;7.27;;;;;;;;;;5092309;28;20193;-84
2022/06/10 00:35:25;;;;;;;9.43;7.57;;;;;;;;;;5092204;28;20209;-85
2022/06/10 00:37:52;;;;;;;8.57;6.40;;;;;;;;;;5092250;28;20289;-84
2022/06/10 00:40:24;;;;;;;10.83;6.70;;;;;;;;;;5091850;28;20249;-84
2022/06/10 00:42:53;;;;;;;30.77;8.37;;;;;;;;;;5092348;28;20551;-85
2022/06/10 00:45:53;;;;;;;11.40;8.27;;;;;;;;;;5092042;28;20194;-84
2022/06/10 00:48:24;;;;;;;10.23;7.33;;;;;;;;;;5091776;28;20300;-84
2022/06/10 00:50:52;;;;;;;18.77;6.90;;;;;;;;;;5091934;28;20277;-84
2022/06/10 00:53:22;;;;;;;11.53;7.37;;;;;;;;;;5092067;28;20912;-84
2022/06/10 00:55:53;;;;;;;13.07;7.60;;;;;;;;;;5092458;28;20259;-84
2022/06/10 00:58:26;;;;;;;16.70;7.70;;;;;;;;;;5091671;28;20277;-84
2022/06/10 01:00:53;;;;;;;21.13;7.97;;;;;;;;;;5091875;28;20185;-84
2022/06/10 01:03:20;;;;;;;8.53;7.60;;;;;;;;;;5092044;28;20268;-84
2022/06/10 01:05:47;;;;;;;11.23;8.83;;;;;;;;;;5091877;28;20652;-84
2022/06/10 01:08:17;;;;;;;22.87;8.87;;;;;;;;;;5091688;28;20219;-84
2022/06/10 01:10:51;;;;;;;10.97;7.27;;;;;;;;;;5091656;28;20205;-84
2022/06/10 01:13:26;;;;;;;20.63;8.70;;;;;;;;;;5092006;28;20663;-84
2022/06/10 01:15:59;;;;;;;13.90;8.47;;;;;;;;;;5091830;28;20235;-84
2022/06/10 01:18:36;;;;;;;10.80;6.77;;;;;;;;;;5091940;28;20571;-84
2022/06/10 01:21:20;;;;;;;22.40;8.90;;;;;;;;;;5091848;28;20261;-84
2022/06/10 01:24:09;;;;;;;26.07;8.40;;;;;;;;;;5091726;28;20218;-84
2022/06/10 01:30:15;;;;;;;21.20;8.10;;;;;;;;;;5091733;28;20196;-84
2022/06/10 01:32:58;;;;;;;17.23;7.73;;;;;;;;;;5091677;28;20188;-84
2022/06/10 01:35:46;;;;;;;18.37;7.83;;;;;;;;;;5091803;28;20197;-84
2022/06/10 01:38:22;;;;;;;21.90;7.87;;;;;;;;;;5091632;28;20568;-84
2022/06/10 01:40:55;;;;;;;13.37;9.13;;;;;;;;;;5091604;28;20271;-84
2022/06/10 01:43:30;;;;;;;19.57;9.47;;;;;;;;;;5091367;28;20189;-84
2022/06/10 01:46:04;;;;;;;15.07;9.13;;;;;;;;;;5091413;28;20192;-84
2022/06/10 01:48:36;;;;;;;7.77;6.63;;;;;;;;;;5091373;28;20267;-84
2022/06/10 01:51:07;;;;;;;7.50;6.90;;;;;;;;;;5091618;28;20665;-84
2022/06/10 02:09:37;;;;;;;10.57;9.57;;;;;;;;;;5065663;28;20554;-86
2022/06/10 02:12:10;;;;;;;8.70;7.83;;;;;;;;;;5065976;28;20227;-86
2022/06/10 02:14:40;;;;;;;8.67;7.40;;;;;;;;;;5047327;27;20234;-86
2022/06/10 02:17:09;;;;;;;8.67;7.87;;;;;;;;;;5045555;28;20211;-86
2022/06/10 02:19:40;;;;;;;9.27;8.47;;;;;;;;;;5045264;28;20210;-86
2022/06/10 02:22:10;;;;;;;11.80;8.57;;;;;;;;;;5045843;28;20189;-86
2022/06/10 02:24:41;;;;;;;9.13;8.23;;;;;;;;;;5055642;27;20234;-85
2022/06/10 02:27:12;;;;;;;9.70;8.70;;;;;;;;;;5065192;28;20229;-85
2022/06/10 02:29:48;;;;;;;8.90;8.00;;;;;;;;;;5065375;28;20744;-85
2022/06/10 02:32:15;;;;;;;9.20;8.40;;;;;;;;;;5065444;28;20667;-86
2022/06/10 02:34:43;;;;;;;8.53;7.83;;;;;;;;;;5065192;28;20196;-85
2022/06/10 02:37:16;;;;;;;9.53;8.53;;;;;;;;;;5065213;28;20257;-86
2022/06/10 02:39:47;;;;;;;8.43;7.73;;;;;;;;;;5065420;28;20552;-85
2022/06/10 02:42:19;;;;;;;8.40;7.70;;;;;;;;;;5065279;28;20200;-86
2022/06/10 02:44:54;;;;;;;8.20;7.53;;;;;;;;;;5064901;28;20677;-85
2022/06/10 02:47:28;;;;;;;7.70;7.10;;;;;;;;;;5065144;28;20279;-85
2022/06/10 02:49:55;;;;;;;7.20;6.60;;;;;;;;;;5065062;28;20190;-85
2022/06/10 02:52:26;;;;;;;7.10;6.50;;;;;;;;;;5064856;28;20205;-86
2022/06/10 02:54:54;;;;;;;7.60;7.00;;;;;;;;;;5064991;27;20642;-86
2022/06/10 03:01:11;;;;;;;7.00;6.47;;;;;;;;;;5064884;28;20225;-86
2022/06/10 03:03:05;;;;;;;8.20;7.40;;;;;;;;;;5065050;28;20476;-86
2022/06/10 03:05:36;;;;;;;8.73;8.03;;;;;;;;;;5065158;28;20217;-87
2022/06/10 03:08:10;;;;;;;8.43;7.80;;;;;;;;;;5064873;28;20276;-86
2022/06/10 03:10:49;;;;;;;8.70;8.00;;;;;;;;;;5051073;28;20190;-87
2022/06/10 03:13:27;;;;;;;7.83;7.23;;;;;;;;;;5051215;28;20610;-86
2022/06/10 03:16:04;;;;;;;8.37;7.67;;;;;;;;;;5051746;28;20195;-86
2022/06/10 03:18:38;;;;;;;8.50;7.80;;;;;;;;;;5051059;28;20752;-86
2022/06/10 03:21:13;;;;;;;8.07;7.37;;;;;;;;;;5051193;28;20196;-87
2022/06/10 03:23:47;;;;;;;8.60;7.87;;;;;;;;;;5051522;28;20185;-86
2022/06/10 03:26:24;;;;;;;8.50;7.70;;;;;;;;;;5051599;28;20195;-87
2022/06/10 03:28:57;;;;;;;7.90;7.23;;;;;;;;;;5051142;28;20198;-86
2022/06/10 03:31:31;;;;;;;7.67;6.93;;;;;;;;;;5051024;28;20697;-86
2022/06/10 03:34:03;;;;;;;8.80;7.57;;;;;;;;;;5051226;28;20218;-86
2022/06/10 03:36:32;;;;;;;7.90;7.20;;;;;;;;;;5051465;28;20239;-87
2022/06/10 03:39:01;;;;;;;8.13;7.43;;;;;;;;;;5050918;28;20278;-87
2022/06/10 03:41:32;;;;;;;22.67;9.30;;;;;;;;;;5050857;28;20202;-86
2022/06/10 03:44:01;;;;;;;8.27;6.90;;;;;;;;;;5050714;28;20191;-86
2022/06/10 03:46:32;;;;;;;9.53;8.07;;;;;;;;;;5051084;28;20589;-87
2022/06/10 03:49:00;;;;;;;8.07;7.47;;;;;;;;;;5047461;28;20729;-85
2022/06/10 03:51:27;;;;;;;7.57;6.87;;;;;;;;;;5050568;28;20206;-86
2022/06/10 03:53:54;;;;;;;8.57;7.87;;;;;;;;;;5050393;28;20339;-86
2022/06/10 03:56:22;;;;;;;7.20;6.70;;;;;;;;;;5050305;28;20203;-85
2022/06/10 03:58:52;;;;;;;7.23;6.70;;;;;;;;;;5050649;28;20567;-85
2022/06/10 04:01:20;;;;;;;7.10;6.47;;;;;;;;;;5050364;28;20206;-86
2022/06/10 04:03:47;;;;;;;7.07;6.57;;;;;;;;;;5050655;28;20234;-87
2022/06/10 04:06:15;;;;;;;7.43;6.93;;;;;;;;;;5050352;28;20202;-87
2022/06/10 04:08:42;;;;;;;6.40;5.97;;;;;;;;;;5050640;28;20258;-86
2022/06/10 04:11:09;;;;;;;6.97;6.27;;;;;;;;;;5050254;28;20331;-87
2022/06/10 04:13:36;;;;;;;7.20;6.50;;;;;;;;;;5050343;28;20293;-87
2022/06/10 04:16:06;;;;;;;7.30;6.40;;;;;;;;;;5050340;28;20255;-87
2022/06/10 04:18:33;;;;;;;7.07;6.47;;;;;;;;;;5050335;28;20314;-87
2022/06/10 04:21:01;;;;;;;8.53;7.67;;;;;;;;;;5049237;28;20231;-86
2022/06/10 04:23:28;;;;;;;7.43;6.83;;;;;;;;;;5049958;28;20198;-86
2022/06/10 04:25:55;;;;;;;7.27;6.77;;;;;;;;;;5050435;28;20229;-87
2022/06/10 04:28:23;;;;;;;7.37;6.73;;;;;;;;;;5050105;28;20199;-87
2022/06/10 04:30:52;;;;;;;7.60;7.00;;;;;;;;;;5050129;28;20259;-86
2022/06/10 04:33:21;;;;;;;8.70;7.90;;;;;;;;;;5049897;28;20258;-86
2022/06/10 04:35:50;;;;;;;8.57;7.87;;;;;;;;;;5050053;28;20234;-86
2022/06/10 04:38:19;;;;;;;12.57;8.03;;;;;;;;;;5049905;28;20267;-87
2022/06/10 04:40:48;;;;;;;8.77;8.00;;;;;;;;;;5050107;28;20229;-87
2022/06/10 04:43:16;;;;;;;9.07;8.27;;;;;;;;;;5050321;28;20200;-87
2022/06/10 04:45:46;;;;;;;8.40;7.77;;;;;;;;;;5049732;28;20201;-87
2022/06/10 04:48:14;;;;;;;8.40;7.70;;;;;;;;;;5050274;28;20199;-87
2022/06/10 04:50:43;;;;;;;8.37;7.67;;;;;;;;;;5050246;28;20199;-87
2022/06/10 04:53:11;;;;;;;8.50;7.70;;;;;;;;;;5049949;28;20295;-86
2022/06/10 04:55:38;;;;;;;9.43;8.57;;;;;;;;;;5050065;28;20195;-87
2022/06/10 04:58:06;;;;;;;8.13;7.53;;;;;;;;;;5050081;28;20689;-87
2022/06/10 05:00:37;;;;;;;9.13;8.20;;;;;;;;;;5050112;28;20199;-87
2022/06/10 05:03:04;;;;;;;8.70;7.90;;;;;;;;;;5049984;28;20287;-88
2022/06/10 05:05:32;;;;;;;8.43;7.57;;;;;;;;;;5050022;28;20225;-87
2022/06/10 05:08:01;;;;;;;8.77;7.93;;;;;;;;;;5049762;28;20229;-87
2022/06/10 05:10:29;;;;;;;8.67;8.07;;;;;;;;;;5049623;28;20200;-88
2022/06/10 05:12:56;;;;;;;8.83;8.00;;;;;;;;;;5049748;28;20256;-87
2022/06/10 05:15:23;;;;;;;9.33;8.53;;;;;;;;;;5050583;28;20302;-88
2022/06/10 05:17:52;;;;;;;8.23;7.57;;;;;;;;;;5049509;28;20244;-86
2022/06/10 05:20:23;;;;;;;7.33;6.83;;;;;;;;;;5049986;28;20277;-87
2022/06/10 05:22:51;;;;;;;7.60;6.90;;;;;;;;;;5049580;28;20662;-87
2022/06/10 05:25:20;;;;;;;8.57;7.97;;;;;;;;;;5049505;28;20289;-87
2022/06/10 05:27:48;;;;;;;9.30;8.60;;;;;;;;;;5049672;28;20601;-87
2022/06/10 05:30:18;;;;;;;9.33;8.63;;;;;;;;;;5049589;28;20649;-87
2022/06/10 05:32:45;;;;;;;9.53;8.83;;;;;;;;;;5049291;28;20218;-87
2022/06/10 05:35:13;;;;;;;9.07;8.17;;;;;;;;;;5049717;28;20199;-87
2022/06/10 05:37:41;;;;;;;8.87;8.20;;;;;;;;;;5049314;28;20199;-87
2022/06/10 05:40:09;;;;;;;8.73;8.03;;;;;;;;;;5049455;28;20627;-87
2022/06/10 05:42:38;;;;;;;9.00;8.40;;;;;;;;;;5049572;28;20254;-87
2022/06/10 05:45:06;;;;;;;9.70;8.43;;;;;;;;;;5049495;28;20637;-87
2022/06/10 05:47:35;;;;;;;8.50;7.80;;;;;;;;;;5049206;28;20198;-87
2022/06/10 05:50:05;;;;;;;9.70;8.30;;;;;;;;;;5049258;28;20206;-87
2022/06/10 05:52:32;;;;;;;8.93;8.30;;;;;;;;;;5049099;28;20248;-86
2022/06/10 05:55:01;;;;;;;9.70;8.83;;;;;;;;;;5049093;28;20198;-87
2022/06/10 05:57:30;;;;;;;9.40;8.67;;;;;;;;;;5049097;28;20204;-87
2022/06/10 05:59:59;;;;;;;8.27;7.67;;;;;;;;;;5049309;28;20253;-87
2022/06/10 06:02:27;;;;;;;8.43;7.73;;;;;;;;;;5048947;28;20207;-87
2022/06/10 06:04:55;;;;;;;8.20;7.60;;;;;;;;;;5049042;28;20218;-87
2022/06/10 06:07:25;;;;;;;9.23;8.63;;;;;;;;;;5048771;28;20198;-87
2022/06/10 06:09:53;;;;;;;9.13;8.43;;;;;;;;;;5048711;28;20188;-88
2022/06/10 06:12:20;;;;;;;9.20;8.50;;;;;;;;;;5048791;28;20230;-87
2022/06/10 06:14:47;;;;;;;10.17;9.33;;;;;;;;;;5048829;28;20683;-87
2022/06/10 06:17:17;;;;;;;9.40;8.80;;;;;;;;;;5048907;28;20207;-87
2022/06/10 06:19:44;;;;;;;9.10;8.37;;;;;;;;;;5048593;28;20262;-87
2022/06/10 06:22:11;;;;;;;8.63;8.03;;;;;;;;;;5048750;28;20197;-88
2022/06/10 06:24:39;;;;;;;9.03;8.43;;;;;;;;;;5048848;28;20206;-87
2022/06/10 06:27:07;;;;;;;8.93;8.23;;;;;;;;;;5048574;28;20205;-87
2022/06/10 06:29:34;;;;;;;8.93;8.23;;;;;;;;;;5048723;28;20223;-87
2022/06/10 06:32:02;;;;;;;9.93;9.13;;;;;;;;;;5048896;28;20696;-87
2022/06/10 06:34:31;;;;;;;9.43;8.73;;;;;;;;;;5048460;28;20668;-87
2022/06/10 06:36:58;;;;;;;10.87;9.97;;;;;;;;;;5048534;28;20291;-87
2022/06/10 06:39:26;;;;;;;11.63;10.73;;;;;;;;;;5048339;28;20318;-87
2022/06/10 06:41:55;;;;;;;11.83;10.93;;;;;;;;;;5048819;28;20228;-87
2022/06/10 06:44:22;;;;;;;10.90;9.80;;;;;;;;;;5049407;28;20694;-87
2022/06/10 06:46:49;;;;;;;10.63;9.83;;;;;;;;;;5052139;28;20197;-86
2022/06/10 06:49:19;;;;;;;12.33;11.33;;;;;;;;;;5051509;28;20234;-87
2022/06/10 06:51:49;;;;;;;11.60;10.60;;;;;;;;;;5051913;28;20204;-87
2022/06/10 06:54:17;;;;;;;11.77;10.87;;;;;;;;;;5051718;28;20291;-87
2022/06/10 06:56:44;;;;;;;12.37;11.33;;;;;;;;;;5051956;28;20300;-87
2022/06/10 06:59:11;;;;;;;11.73;10.83;;;;;;;;;;5051508;28;20260;-87
2022/06/10 07:01:39;;;;;;;12.93;11.83;;;;;;;;;;5051674;28;20261;-87
2022/06/10 07:04:07;;;;;;;13.30;12.20;;;;;;;;;;5051715;28;20270;-87
2022/06/10 07:06:35;;;;;;;13.93;11.47;;;;;;;;;;5051568;28;20242;-87
2022/06/10 07:09:05;;;;;;;13.53;11.83;;;;;;;;;;5051344;28;20233;-87
2022/06/10 07:11:32;;;;;;;12.37;11.23;;;;;;;;;;5051314;28;20230;-87
2022/06/10 07:14:00;;;;;;;12.57;11.53;;;;;;;;;;5051343;28;20239;-87
2022/06/10 07:16:27;;;;;;;11.93;11.10;;;;;;;;;;5051804;28;20202;-87
2022/06/10 07:18:55;;;;;;;13.20;12.07;;;;;;;;;;5051169;28;20278;-87
2022/06/10 07:21:22;;;;;;;12.40;11.33;;;;;;;;;;5051671;28;20253;-87
2022/06/10 07:23:49;;;;;;;13.27;12.17;;;;;;;;;;5051267;28;20669;-87
2022/06/10 07:26:18;;;;;;;12.77;11.67;;;;;;;;;;5051526;28;20283;-86
2022/06/10 07:28:45;;;;;;;13.60;12.53;;;;;;;;;;5051094;28;20244;-87
2022/06/10 07:31:12;;;;;;;14.63;13.33;;;;;;;;;;5051005;28;20239;-87
2022/06/10 07:33:40;;;;;;;15.07;13.77;;;;;;;;;;5050982;28;20202;-86
2022/06/10 07:36:10;;;;;;;16.87;15.27;;;;;;;;;;5051459;28;20233;-86
2022/06/10 07:38:38;;;;;;;17.00;15.50;;;;;;;;;;5051176;28;20193;-86
2022/06/10 07:43:51;;;;;;;16.40;14.90;;;;;;;;;;5051036;28;20180;-86
2022/06/10 07:46:20;;;;;;;16.67;15.17;;;;;;;;;;5050866;28;20202;-87
2022/06/10 07:48:47;;;;;;;16.70;15.00;;;;;;;;;;5050776;28;20256;-86
2022/06/10 07:51:15;;;;;;;17.23;15.63;;;;;;;;;;5051186;28;20574;-87
2022/06/10 07:53:43;;;;;;;16.70;15.10;;;;;;;;;;5050772;28;20198;-87
2022/06/10 07:56:13;;;;;;;17.10;15.50;;;;;;;;;;5050643;28;20254;-87
2022/06/10 07:58:40;;;;;;;17.53;16.03;;;;;;;;;;5050522;28;20197;-87
2022/06/10 08:01:10;;;;;;;18.50;16.53;;;;;;;;;;5050718;28;20198;-87
2022/06/10 08:03:38;;;;;;;18.90;17.13;;;;;;;;;;5050527;28;20205;-87
2022/06/10 08:06:06;;;;;;;19.57;17.67;;;;;;;;;;5050538;28;20230;-86
2022/06/10 08:08:33;;;;;;;19.60;17.77;;;;;;;;;;5050135;28;20329;-86
2022/06/10 08:11:01;;;;;;;20.30;18.40;;;;;;;;;;5050480;28;20229;-86
2022/06/10 08:13:29;;;;;;;19.80;18.07;;;;;;;;;;5050314;28;20202;-87
2022/06/10 08:15:56;;;;;;;20.33;18.63;;;;;;;;;;5050636;28;20240;-87
2022/06/10 08:18:25;;;;;;;20.73;18.93;;;;;;;;;;5050317;28;20204;-86
2022/06/10 08:23:41;;;;;;;22.03;20.03;;;;;;;;;;5050689;28;20661;-87
2022/06/10 08:26:09;;;;;;;21.63;19.70;;;;;;;;;;5050081;28;20189;-87
2022/06/10 08:28:38;;;;;;;22.93;20.93;;;;;;;;;;5050347;28;20280;-87
2022/06/10 08:31:06;;;;;;;24.87;22.43;;;;;;;;;;5050215;28;20202;-87
2022/06/10 08:33:35;;;;;;;26.20;24.10;;;;;;;;;;5049966;28;20202;-87
2022/06/10 08:36:03;;;;;;;23.80;21.47;;;;;;;;;;5050190;28;20193;-86
2022/06/10 08:38:31;;;;;;;24.47;22.40;;;;;;;;;;5050119;28;20223;-86
2022/06/10 08:41:01;;;;;;;24.57;22.57;;;;;;;;;;5050272;28;20221;-86
2022/06/10 08:43:41;;;;;;;23.67;21.57;;;;;;;;;;5050319;28;20186;-86
2022/06/10 08:46:19;;;;;;;23.80;21.80;;;;;;;;;;5049912;28;20190;-87
2022/06/10 08:49:00;;;;;;;27.23;24.93;;;;;;;;;;5049719;28;20186;-86
2022/06/10 08:51:32;;;;;;;26.03;23.77;;;;;;;;;;5049879;28;20190;-87
2022/06/10 08:54:21;;;;;;;25.43;23.13;;;;;;;;;;5049821;28;20639;-87
2022/06/10 08:56:50;;;;;;;26.40;24.03;;;;;;;;;;5052929;28;20233;-86
2022/06/10 08:59:26;;;;;;;28.53;26.07;;;;;;;;;;5049280;28;20265;-87
2022/06/10 09:02:02;;;;;;;28.73;26.03;;;;;;;;;;5049758;28;20225;-86
2022/06/10 09:04:39;;;;;;;28.97;26.23;;;;;;;;;;5049654;28;20272;-87
2022/06/10 09:07:12;;;;;;;27.00;24.90;;;;;;;;;;5048894;28;20190;-86
2022/06/10 09:09:40;;;;;;;24.57;22.67;;;;;;;;;;5049506;28;20609;-87
2022/06/10 09:12:12;;;;;;;27.47;25.20;;;;;;;;;;5049532;28;20206;-87
2022/06/10 09:14:41;;;;;;;27.30;25.00;;;;;;;;;;5049487;28;20217;-87
2022/06/10 09:17:13;;;;;;;28.20;25.70;;;;;;;;;;5049361;28;20190;-87
2022/06/10 09:19:51;;;;;;;31.73;28.83;;;;;;;;;;5049750;28;20263;-87
2022/06/10 09:22:24;;;;;;;28.57;25.97;;;;;;;;;;5049613;28;20186;-87
2022/06/10 09:24:55;;;;;;;31.07;28.37;;;;;;;;;;5049378;28;20186;-86
2022/06/10 09:27:27;;;;;;;34.00;31.20;;;;;;;;;;5049730;28;20218;-87
2022/06/10 09:29:57;;;;;;;36.67;33.33;;;;;;;;;;5049439;28;20217;-87
2022/06/10 09:32:30;;;;;;;39.47;36.20;;;;;;;;;;5049722;28;20247;-87
2022/06/10 09:35:04;;;;;;;39.53;36.23;;;;;;;;;;5049278;28;20185;-86
2022/06/10 09:37:40;;;;;;;38.70;35.57;;;;;;;;;;5049674;28;20600;-86
2022/06/10 09:43:26;;;;;;;38.77;35.67;;;;;;;;;;5049204;28;20185;-87
2022/06/10 09:46:03;;;;;;;41.73;38.20;;;;;;;;;;5049031;28;20202;-87
2022/06/10 09:48:48;;;;;;;37.80;34.70;;;;;;;;;;5049141;28;20211;-87
2022/06/10 09:51:22;;;;;;;35.27;32.30;;;;;;;;;;5049256;28;20714;-87
2022/06/10 09:54:06;;;;;;;40.90;37.70;;;;;;;;;;5049237;28;20216;-87
2022/06/10 09:56:48;;;;;;;38.07;35.17;;;;;;;;;;5049025;28;20186;-87
2022/06/10 09:59:24;;;;;;;38.23;35.00;;;;;;;;;;5049328;28;20626;-88
2022/06/10 10:02:00;;;;;;;37.87;34.63;;;;;;;;;;5049266;28;20298;-86
2022/06/10 10:04:45;;;;;;;36.00;32.90;;;;;;;;;;5049149;28;20190;-87
2022/06/10 10:07:20;;;;;;;38.10;34.90;;;;;;;;;;5048669;28;20290;-87
2022/06/10 10:09:56;;;;;;;38.47;35.57;;;;;;;;;;5048754;28;20182;-87
2022/06/10 10:12:33;;;;;;;36.37;33.60;;;;;;;;;;5049242;28;20646;-87
2022/06/10 10:15:04;;;;;;;39.43;36.30;;;;;;;;;;5048821;28;20273;-87
2022/06/10 10:17:41;;;;;;;39.53;36.47;;;;;;;;;;5049108;28;20590;-88
2022/06/10 10:20:16;;;;;;;38.33;35.23;;;;;;;;;;5051152;28;20667;-87
2022/06/10 10:23:06;;;;;;;40.93;37.73;;;;;;;;;;5052597;28;20185;-86
2022/06/10 10:25:34;;;;;;;39.53;36.40;;;;;;;;;;5052700;28;20642;-87
2022/06/10 10:28:06;;;;;;;35.43;32.73;;;;;;;;;;5052341;28;20194;-87
2022/06/10 10:30:38;;;;;;;35.77;32.97;;;;;;;;;;5052389;28;20242;-87
2022/06/10 10:33:07;;;;;;;34.47;31.63;;;;;;;;;;5052298;28;20218;-88
2022/06/10 10:35:38;;;;;;;37.83;34.53;;;;;;;;;;5052395;28;20266;-88
2022/06/10 10:38:10;;;;;;;34.00;31.20;;;;;;;;;;5052664;28;20282;-88
2022/06/10 10:40:42;;;;;;;40.63;37.30;;;;;;;;;;5052539;28;20753;-88
2022/06/10 10:43:14;;;;;;;31.03;28.73;;;;;;;;;;5052180;28;20190;-88
2022/06/10 10:45:53;;;;;;;35.07;32.17;;;;;;;;;;5052477;28;20259;-88
2022/06/10 10:48:25;;;;;;;34.97;32.10;;;;;;;;;;5052160;28;20225;-88
2022/06/10 10:50:56;;;;;;;33.43;30.63;;;;;;;;;;5052179;28;20566;-88
2022/06/10 10:53:28;;;;;;;31.13;28.73;;;;;;;;;;5052039;28;20214;-88
2022/06/10 10:55:57;;;;;;;30.93;28.20;;;;;;;;;;5052440;28;20238;-88
2022/06/10 10:58:29;;;;;;;33.33;30.43;;;;;;;;;;5052378;28;20663;-88
2022/06/10 11:01:00;;;;;;;32.77;29.83;;;;;;;;;;5052020;28;20202;-88
2022/06/10 11:03:29;;;;;;;30.20;27.83;;;;;;;;;;5051752;28;20243;-89
2022/06/10 11:05:58;;;;;;;32.47;29.87;;;;;;;;;;5051699;28;20206;-88
2022/06/10 11:08:30;;;;;;;28.20;25.80;;;;;;;;;;5051770;28;20287;-88
2022/06/10 11:11:14;;;;;;;33.57;30.57;;;;;;;;;;5052256;28;20189;-88
2022/06/10 11:13:56;;;;;;;31.50;28.57;;;;;;;;;;5051869;28;20234;-88
2022/06/10 11:16:45;;;;;;;33.97;31.17;;;;;;;;;;5051921;28;20186;-88
2022/06/10 11:19:26;;;;;;;25.23;23.23;;;;;;;;;;5051920;28;20263;-88
2022/06/10 11:21:56;;;;;;;31.83;29.20;;;;;;;;;;5051712;28;20206;-88
2022/06/10 11:24:28;;;;;;;27.47;25.13;;;;;;;;;;5052109;28;20269;-89
2022/06/10 11:26:58;;;;;;;26.23;24.13;;;;;;;;;;5051903;28;20666;-88
2022/06/10 11:29:26;;;;;;;30.50;28.10;;;;;;;;;;5051520;28;20290;-88
2022/06/10 11:31:56;;;;;;;29.43;26.93;;;;;;;;;;5051406;28;20198;-88
2022/06/10 11:34:28;;;;;;;25.80;23.67;;;;;;;;;;5052078;28;20680;-89
2022/06/10 11:36:56;;;;;;;27.63;25.13;;;;;;;;;;5051539;28;20182;-88
2022/06/10 11:39:28;;;;;;;28.03;25.70;;;;;;;;;;5051487;28;20213;-88
2022/06/10 11:42:08;;;;;;;25.37;23.33;;;;;;;;;;5051637;28;20210;-88
2022/06/10 11:44:40;;;;;;;27.37;24.87;;;;;;;;;;5051814;28;20559;-88
2022/06/10 11:47:13;;;;;;;28.10;25.70;;;;;;;;;;5051777;28;20199;-88
2022/06/10 11:49:44;;;;;;;27.77;25.30;;;;;;;;;;5051397;28;20225;-88
2022/06/10 11:52:16;;;;;;;25.97;23.53;;;;;;;;;;5051342;28;20190;-87
2022/06/10 11:54:49;;;;;;;20.20;18.30;;;;;;;;;;5051417;28;20190;-88
2022/06/10 12:00:13;;;;;;;15.80;14.50;;;;;;;;;;5051251;28;20294;-88
2022/06/10 12:02:44;;;;;;;13.10;12.10;;;;;;;;;;5050952;28;20232;-87
2022/06/10 12:05:26;;;;;;;14.80;13.50;;;;;;;;;;5051292;28;20543;-88
2022/06/10 12:08:00;;;;;;;14.43;13.07;;;;;;;;;;5050846;28;20233;-88
2022/06/10 12:10:36;;;;;;;13.20;12.10;;;;;;;;;;5051294;28;20317;-88
2022/06/10 12:13:04;;;;;;;13.90;12.73;;;;;;;;;;5051078;28;20237;-88
2022/06/10 12:15:34;;;;;;;14.07;12.90;;;;;;;;;;5050781;28;20197;-88
2022/06/10 12:18:05;;;;;;;15.13;13.70;;;;;;;;;;5050617;28;20201;-88
2022/06/10 12:20:36;;;;;;;16.00;14.53;;;;;;;;;;5050893;28;20235;-87
2022/06/10 12:23:12;;;;;;;15.23;13.83;;;;;;;;;;5050569;28;20190;-87
2022/06/10 12:25:57;;;;;;;16.13;14.57;;;;;;;;;;5050804;28;20243;-88
2022/06/10 12:28:38;;;;;;;15.50;14.17;;;;;;;;;;5050644;28;20212;-88
2022/06/10 12:31:16;;;;;;;14.87;13.63;;;;;;;;;;5050507;28;20189;-88
2022/06/10 12:33:46;;;;;;;15.20;13.90;;;;;;;;;;5051028;28;20186;-87
2022/06/10 12:36:16;;;;;;;18.10;16.63;;;;;;;;;;5050864;28;20231;-88
2022/06/10 12:38:44;;;;;;;20.73;19.03;;;;;;;;;;5050877;28;20262;-88
2022/06/10 12:41:17;;;;;;;23.20;21.20;;;;;;;;;;5050401;28;20602;-88
2022/06/10 12:43:46;;;;;;;24.27;22.37;;;;;;;;;;5049882;28;20178;-88
2022/06/10 12:46:33;;;;;;;21.30;19.40;;;;;;;;;;5050376;28;20222;-88
2022/06/10 12:49:07;;;;;;;17.63;16.03;;;;;;;;;;5050279;28;20194;-89
2022/06/10 12:51:40;;;;;;;25.77;19.83;;;;;;;;;;5050937;28;20217;-89
2022/06/10 12:54:20;;;;;;;19.40;17.60;;;;;;;;;;5050572;28;20186;-89
2022/06/10 12:56:49;;;;;;;18.40;16.80;;;;;;;;;;5050586;28;20217;-89
2022/06/10 12:59:23;;;;;;;19.03;17.47;;;;;;;;;;5050240;28;20202;-89
2022/06/10 13:01:51;;;;;;;20.13;18.47;;;;;;;;;;5050665;28;20630;-89
2022/06/10 13:04:51;;;;;;;21.33;19.43;;;;;;;;;;5050430;28;20281;-89
2022/06/10 13:07:28;;;;;;;22.30;20.27;;;;;;;;;;5050244;28;20560;-89
2022/06/10 13:09:55;;;;;;;19.23;17.40;;;;;;;;;;5050473;28;20193;-89
2022/06/10 13:12:37;;;;;;;20.83;19.13;;;;;;;;;;5050259;28;20289;-88
2022/06/10 13:15:17;;;;;;;21.90;20.00;;;;;;;;;;5050147;28;20702;-89
2022/06/10 13:18:00;;;;;;;21.23;19.37;;;;;;;;;;5050134;28;20198;-88
2022/06/10 13:20:30;;;;;;;22.77;20.87;;;;;;;;;;5050018;28;20757;-89
2022/06/10 13:23:15;;;;;;;24.17;21.97;;;;;;;;;;5050317;28;20282;-88
2022/06/10 13:25:44;;;;;;;24.23;22.37;;;;;;;;;;5050297;28;20217;-88
2022/06/10 13:28:24;;;;;;;24.80;22.60;;;;;;;;;;5049941;28;20666;-88
2022/06/10 13:30:53;;;;;;;24.77;22.50;;;;;;;;;;5049987;28;20189;-91
2022/06/10 13:33:20;;;;;;;30.50;25.83;;;;;;;;;;5050182;28;20221;-93
2022/06/10 13:35:55;;;;;;;20.90;17.37;;;;;;;;;;5050321;28;20254;-90
2022/06/10 13:38:27;;;;;;;18.03;16.23;;;;;;;;;;5050110;28;20190;-91
2022/06/10 13:41:48;;;;;;;13.60;12.40;;;;;;;;;;5050013;28;20217;-90
2022/06/10 13:43:49;;;;;;;9.83;8.83;;;;;;;;;;5049599;28;20723;-88
2022/06/10 13:46:20;;;;;;;16.47;12.93;;;;;;;;;;5049800;28;20183;-88
2022/06/10 13:48:47;;;;;;;13.80;12.00;;;;;;;;;;5050116;28;20617;-89
2022/06/10 13:51:32;;;;;;;12.33;11.20;;;;;;;;;;5050124;28;20223;-88
2022/06/10 13:54:04;;;;;;;12.07;10.97;;;;;;;;;;5049889;28;20190;-90
2022/06/10 13:56:35;;;;;;;12.20;10.83;;;;;;;;;;5049830;28;20182;-89
2022/06/10 13:59:04;;;;;;;13.03;11.90;;;;;;;;;;5049365;28;20193;-89
2022/06/10 14:01:33;;;;;;;16.60;15.17;;;;;;;;;;5049801;28;20230;-89
2022/06/10 14:04:07;;;;;;;10.90;9.97;;;;;;;;;;5049761;28;20258;-89
2022/06/10 14:06:37;;;;;;;11.03;9.93;;;;;;;;;;5049921;28;20227;-89
2022/06/10 14:09:12;;;;;;;12.33;11.07;;;;;;;;;;5049331;28;20250;-88
2022/06/10 14:11:41;;;;;;;10.93;10.03;;;;;;;;;;5049865;28;20213;-89
2022/06/10 14:14:17;;;;;;;14.10;12.63;;;;;;;;;;5049450;28;20293;-89
2022/06/10 14:16:45;;;;;;;12.83;11.63;;;;;;;;;;5049730;28;20217;-89
2022/06/10 14:19:14;;;;;;;13.37;12.20;;;;;;;;;;5049780;28;20229;-89
2022/06/10 14:21:41;;;;;;;12.03;11.03;;;;;;;;;;5049644;28;20297;-90
2022/06/10 14:24:21;;;;;;;12.20;11.20;;;;;;;;;;5049349;28;20757;-89
2022/06/10 14:26:54;;;;;;;10.90;10.10;;;;;;;;;;5049611;28;20194;-90
2022/06/10 14:29:27;;;;;;;11.50;10.50;;;;;;;;;;5049569;28;20243;-89
2022/06/10 14:32:00;;;;;;;11.57;10.37;;;;;;;;;;5049352;28;20183;-90
2022/06/10 14:34:28;;;;;;;9.17;8.37;;;;;;;;;;5049436;28;20255;-89
2022/06/10 14:37:02;;;;;;;10.37;9.37;;;;;;;;;;5049478;28;20190;-89
2022/06/10 14:39:31;;;;;;;9.63;8.87;;;;;;;;;;5049433;28;20243;-89
2022/06/10 14:42:02;;;;;;;10.20;9.20;;;;;;;;;;5049387;28;20214;-90
2022/06/10 14:44:34;;;;;;;8.67;7.97;;;;;;;;;;5049179;28;20186;-90
2022/06/10 14:47:13;;;;;;;9.37;8.47;;;;;;;;;;5049097;28;20186;-89
2022/06/10 14:49:45;;;;;;;9.87;9.07;;;;;;;;;;5049410;28;20198;-89
2022/06/10 14:52:18;;;;;;;9.87;8.87;;;;;;;;;;5049013;28;20224;-90
2022/06/10 14:54:46;;;;;;;10.47;9.13;;;;;;;;;;5049076;28;20215;-89
2022/06/10 14:57:21;;;;;;;10.27;9.37;;;;;;;;;;5048820;28;20229;-90
2022/06/10 14:59:50;;;;;;;8.97;8.07;;;;;;;;;;5048997;28;20213;-89
2022/06/10 15:02:18;;;;;;;10.27;9.37;;;;;;;;;;5048671;28;20754;-90
2022/06/10 15:07:30;;;;;;;9.03;8.33;;;;;;;;;;5052140;28;20232;-90
2022/06/10 15:10:00;;;;;;;8.93;8.13;;;;;;;;;;5052534;28;20566;-90
2022/06/10 15:12:29;;;;;;;9.97;9.07;;;;;;;;;;5052520;28;20204;-91
2022/06/10 15:14:59;;;;;;;9.70;8.80;;;;;;;;;;5052378;28;20198;-89
2022/06/10 15:17:28;;;;;;;9.10;8.33;;;;;;;;;;5052188;28;20201;-90
2022/06/10 15:19:57;;;;;;;9.73;9.00;;;;;;;;;;5052319;28;20223;-89
2022/06/10 15:22:30;;;;;;;10.57;9.70;;;;;;;;;;5051999;28;20241;-89
2022/06/10 15:24:59;;;;;;;10.93;9.93;;;;;;;;;;5052444;28;20277;-90
2022/06/10 15:27:26;;;;;;;11.43;10.47;;;;;;;;;;5052064;28;20194;-89
2022/06/10 15:29:55;;;;;;;10.83;9.73;;;;;;;;;;5051903;28;20190;-90